HKE130 VHHH-RCKH
Flight info
| Callsign | HKE130 |
|---|---|
| Flight time | 0h 38m |
| Altitude | 31000 |
| Route | OCEAN V3 ENVAR M750 DADON G581 HCN HCN1H |
| Aircraft | A20N/M-SDE2E3FGHIRWXY/LB1 |
Departure
| Time | 2026-04-16 07:03 |
|---|---|
| Airport | Hong Kong International Airport (VHHH) |
Arrival
| Time | 2026-04-16 07:41 |
|---|---|
| Airport | Kaohsiung International Airport (RCKH) |
| Time | Latitude | Longitude | Altitude | Speed | Heading |
|---|---|---|---|---|---|
| 2026-04-16 06:29 | 22.31094 | 113.91823 | 31 ft | 0 kts | 250° |
| 2026-04-16 06:49 | 22.31096 | 113.91830 | 59 ft | 2 kts | 248° |
| 2026-04-16 06:50 | 22.31103 | 113.91844 | 32 ft | 2 kts | 238° |
| 2026-04-16 06:50 | 22.31111 | 113.91857 | 32 ft | 2 kts | 229° |
| 2026-04-16 06:50 | 22.31121 | 113.91868 | 31 ft | 2 kts | 219° |
| 2026-04-16 06:50 | 22.31132 | 113.91877 | 31 ft | 2 kts | 209° |
| 2026-04-16 06:51 | 22.31145 | 113.91884 | 29 ft | 2 kts | 200° |
| 2026-04-16 06:51 | 22.31158 | 113.91888 | 30 ft | 2 kts | 191° |
| 2026-04-16 06:51 | 22.31173 | 113.91890 | 32 ft | 2 kts | 181° |
| 2026-04-16 06:51 | 22.31187 | 113.91890 | 30 ft | 2 kts | 171° |
| 2026-04-16 06:52 | 22.31201 | 113.91887 | 31 ft | 2 kts | 162° |
| 2026-04-16 06:52 | 22.31204 | 113.91886 | 32 ft | 0 kts | 160° |
| 2026-04-16 06:53 | 22.31148 | 113.91908 | 32 ft | 24 kts | 160° |
| 2026-04-16 06:54 | 22.30977 | 113.91972 | 34 ft | 27 kts | 161° |
| 2026-04-16 06:54 | 22.30824 | 113.92029 | 35 ft | 6 kts | 158° |
| 2026-04-16 06:54 | 22.30790 | 113.92074 | 35 ft | 11 kts | 110° |
| 2026-04-16 06:54 | 22.30742 | 113.92142 | 35 ft | 11 kts | 158° |
| 2026-04-16 06:55 | 22.30644 | 113.92189 | 36 ft | 18 kts | 158° |
| 2026-04-16 06:55 | 22.30607 | 113.92289 | 36 ft | 15 kts | 84° |
| 2026-04-16 06:55 | 22.30644 | 113.92405 | 35 ft | 18 kts | 69° |
| 2026-04-16 06:55 | 22.30689 | 113.92540 | 36 ft | 21 kts | 71° |
| 2026-04-16 06:56 | 22.30737 | 113.92697 | 35 ft | 23 kts | 72° |
| 2026-04-16 06:56 | 22.30791 | 113.92869 | 34 ft | 25 kts | 70° |
| 2026-04-16 06:56 | 22.30849 | 113.93055 | 34 ft | 27 kts | 72° |
| 2026-04-16 06:56 | 22.30918 | 113.93249 | 35 ft | 28 kts | 67° |
| 2026-04-16 06:57 | 22.31027 | 113.93419 | 35 ft | 24 kts | 20° |
| 2026-04-16 06:57 | 22.31062 | 113.93422 | 35 ft | 0 kts | 345° |
| 2026-04-16 06:57 | 22.31084 | 113.93415 | 35 ft | 13 kts | 343° |
| 2026-04-16 06:57 | 22.31197 | 113.93372 | 33 ft | 21 kts | 339° |
| 2026-04-16 06:58 | 22.31284 | 113.93264 | 34 ft | 21 kts | 275° |
| 2026-04-16 06:58 | 22.31236 | 113.93117 | 34 ft | 21 kts | 227° |
| 2026-04-16 06:58 | 22.31107 | 113.93113 | 35 ft | 20 kts | 161° |
| 2026-04-16 06:58 | 22.30974 | 113.93167 | 35 ft | 21 kts | 155° |
| 2026-04-16 06:59 | 22.30871 | 113.93222 | 35 ft | 0 kts | 158° |
| 2026-04-16 07:00 | 22.30856 | 113.93229 | 35 ft | 7 kts | 158° |
| 2026-04-16 07:00 | 22.30793 | 113.93254 | 35 ft | 12 kts | 164° |
| 2026-04-16 07:01 | 22.30721 | 113.93210 | 32 ft | 0 kts | 244° |
| 2026-04-16 07:02 | 22.30708 | 113.93180 | 33 ft | 26 kts | 246° |
| 2026-04-16 07:02 | 22.30562 | 113.92753 | 33 ft | 94 kts | 250° |
| 2026-04-16 07:02 | 22.30285 | 113.91892 | 35 ft | 146 kts | 250° |
| 2026-04-16 07:03 | 22.29935 | 113.90726 | 228 ft | 171 kts | 251° |
| 2026-04-16 07:03 | 22.29617 | 113.89484 | 925 ft | 170 kts | 250° |
| 2026-04-16 07:03 | 22.29283 | 113.88246 | 1586 ft | 176 kts | 249° |
| 2026-04-16 07:03 | 22.28860 | 113.86951 | 2085 ft | 194 kts | 243° |
| 2026-04-16 07:04 | 22.28128 | 113.85630 | 2622 ft | 214 kts | 229° |
| 2026-04-16 07:04 | 22.27179 | 113.84289 | 3281 ft | 236 kts | 232° |
| 2026-04-16 07:04 | 22.26168 | 113.82800 | 4001 ft | 253 kts | 228° |
| 2026-04-16 07:04 | 22.24769 | 113.81575 | 4295 ft | 265 kts | 205° |
| 2026-04-16 07:05 | 22.23006 | 113.81189 | 4654 ft | 266 kts | 182° |
| 2026-04-16 07:05 | 22.21146 | 113.81182 | 5418 ft | 269 kts | 175° |
| 2026-04-16 07:05 | 22.19371 | 113.81787 | 6461 ft | 273 kts | 151° |
| 2026-04-16 07:05 | 22.17921 | 113.83161 | 7240 ft | 284 kts | 134° |
| 2026-04-16 07:06 | 22.16652 | 113.84819 | 8061 ft | 291 kts | 127° |
| 2026-04-16 07:06 | 22.15623 | 113.86739 | 8251 ft | 296 kts | 115° |
| 2026-04-16 07:06 | 22.14869 | 113.88801 | 8371 ft | 296 kts | 112° |
| 2026-04-16 07:06 | 22.14129 | 113.90876 | 8488 ft | 297 kts | 110° |
| 2026-04-16 07:07 | 22.13640 | 113.93023 | 8690 ft | 302 kts | 99° |
| 2026-04-16 07:07 | 22.13443 | 113.95294 | 9301 ft | 309 kts | 96° |
| 2026-04-16 07:07 | 22.13247 | 113.97592 | 9466 ft | 304 kts | 96° |
| 2026-04-16 07:07 | 22.13038 | 113.99856 | 9629 ft | 304 kts | 96° |
| 2026-04-16 07:08 | 22.12825 | 114.02128 | 9754 ft | 305 kts | 96° |
| 2026-04-16 07:08 | 22.12614 | 114.04402 | 9859 ft | 305 kts | 96° |
| 2026-04-16 07:08 | 22.12355 | 114.06679 | 9908 ft | 306 kts | 101° |
| 2026-04-16 07:08 | 22.11961 | 114.08944 | 9928 ft | 310 kts | 101° |
| 2026-04-16 07:09 | 22.11558 | 114.11286 | 10043 ft | 328 kts | 101° |
| 2026-04-16 07:09 | 22.11137 | 114.13755 | 10304 ft | 350 kts | 101° |
| 2026-04-16 07:09 | 22.10692 | 114.16376 | 10636 ft | 357 kts | 101° |
| 2026-04-16 07:09 | 22.10246 | 114.19008 | 10787 ft | 357 kts | 101° |
| 2026-04-16 07:10 | 22.09798 | 114.21645 | 10889 ft | 358 kts | 101° |
| 2026-04-16 07:10 | 22.09348 | 114.24293 | 10913 ft | 359 kts | 101° |
| 2026-04-16 07:10 | 22.08899 | 114.26940 | 10933 ft | 360 kts | 101° |
| 2026-04-16 07:10 | 22.08445 | 114.29609 | 11322 ft | 364 kts | 101° |
| 2026-04-16 07:11 | 22.07989 | 114.32293 | 12159 ft | 366 kts | 101° |
| 2026-04-16 07:11 | 22.07391 | 114.34926 | 12906 ft | 369 kts | 110° |
| 2026-04-16 07:11 | 22.06357 | 114.37472 | 13603 ft | 373 kts | 121° |
| 2026-04-16 07:11 | 22.04944 | 114.39821 | 14262 ft | 376 kts | 127° |
| 2026-04-16 07:12 | 22.03454 | 114.42159 | 14909 ft | 380 kts | 126° |
| 2026-04-16 07:12 | 22.02382 | 114.43852 | 15364 ft | 384 kts | 126° |
| 2026-04-16 07:12 | 22.00940 | 114.46139 | 15974 ft | 388 kts | 126° |
| 2026-04-16 07:12 | 21.99417 | 114.48555 | 16593 ft | 392 kts | 126° |
| 2026-04-16 07:13 | 21.97902 | 114.51020 | 17202 ft | 397 kts | 122° |
| 2026-04-16 07:13 | 21.96654 | 114.53695 | 17793 ft | 403 kts | 113° |
| 2026-04-16 07:13 | 21.95775 | 114.56582 | 18351 ft | 409 kts | 104° |
| 2026-04-16 07:13 | 21.95149 | 114.59582 | 18874 ft | 412 kts | 104° |
| 2026-04-16 07:14 | 21.94514 | 114.62603 | 19416 ft | 415 kts | 104° |
| 2026-04-16 07:14 | 21.93875 | 114.65602 | 19943 ft | 418 kts | 104° |
| 2026-04-16 07:14 | 21.91109 | 114.78533 | 22148 ft | 432 kts | 104° |
| 2026-04-16 07:14 | 21.88783 | 115.05016 | 25739 ft | 464 kts | 85° |
| 2026-04-16 07:15 | 21.90416 | 115.33524 | 28599 ft | 489 kts | 88° |
| 2026-04-16 07:15 | 21.91794 | 115.63390 | 30896 ft | 507 kts | 88° |
| 2026-04-16 07:15 | 21.93131 | 115.93757 | 30941 ft | 507 kts | 88° |
| 2026-04-16 07:16 | 21.95643 | 116.54207 | 30924 ft | 505 kts | 88° |
| 2026-04-16 07:16 | 21.97933 | 117.14645 | 30882 ft | 501 kts | 88° |
| 2026-04-16 07:17 | 22.09709 | 117.71445 | 30915 ft | 497 kts | 44° |
| 2026-04-16 07:17 | 22.25358 | 117.96148 | 30942 ft | 503 kts | 60° |
| 2026-04-16 07:17 | 22.28982 | 118.25443 | 30879 ft | 501 kts | 107° |
| 2026-04-16 07:17 | 22.20978 | 118.53963 | 30954 ft | 504 kts | 95° |
| 2026-04-16 07:18 | 22.19883 | 118.68024 | 30304 ft | 500 kts | 98° |
| 2026-04-16 07:18 | 22.19443 | 118.71738 | 30080 ft | 498 kts | 98° |
| 2026-04-16 07:18 | 22.18987 | 118.75433 | 29829 ft | 496 kts | 98° |
| 2026-04-16 07:18 | 22.18539 | 118.79066 | 29563 ft | 494 kts | 98° |
| 2026-04-16 07:19 | 22.18095 | 118.82725 | 29298 ft | 491 kts | 98° |
| 2026-04-16 07:19 | 22.17656 | 118.86371 | 29033 ft | 489 kts | 98° |
| 2026-04-16 07:19 | 22.17222 | 118.89996 | 28774 ft | 486 kts | 98° |
| 2026-04-16 07:19 | 22.16790 | 118.93608 | 28513 ft | 484 kts | 98° |
| 2026-04-16 07:20 | 22.16361 | 118.97198 | 28256 ft | 482 kts | 98° |
| 2026-04-16 07:20 | 22.15930 | 119.00775 | 28005 ft | 479 kts | 98° |
| 2026-04-16 07:20 | 22.15499 | 119.04331 | 27752 ft | 477 kts | 98° |
| 2026-04-16 07:20 | 22.15074 | 119.07827 | 27506 ft | 475 kts | 98° |
| 2026-04-16 07:21 | 22.14645 | 119.11351 | 27261 ft | 473 kts | 98° |
| 2026-04-16 07:21 | 22.14221 | 119.14858 | 27013 ft | 471 kts | 98° |
| 2026-04-16 07:21 | 22.13797 | 119.18361 | 26467 ft | 471 kts | 98° |
| 2026-04-16 07:21 | 22.13372 | 119.21862 | 25830 ft | 470 kts | 98° |
| 2026-04-16 07:22 | 22.12949 | 119.25349 | 25223 ft | 467 kts | 98° |
| 2026-04-16 07:22 | 22.12528 | 119.28806 | 24602 ft | 463 kts | 98° |
| 2026-04-16 07:22 | 22.12109 | 119.32242 | 23996 ft | 460 kts | 98° |
| 2026-04-16 07:22 | 22.11692 | 119.35650 | 23393 ft | 456 kts | 98° |
| 2026-04-16 07:23 | 22.11278 | 119.39030 | 22736 ft | 452 kts | 98° |
| 2026-04-16 07:23 | 22.10875 | 119.42315 | 22212 ft | 444 kts | 98° |
| 2026-04-16 07:23 | 22.10472 | 119.45593 | 21649 ft | 438 kts | 98° |
| 2026-04-16 07:23 | 22.10073 | 119.48832 | 21093 ft | 433 kts | 98° |
| 2026-04-16 07:24 | 22.09679 | 119.52029 | 20530 ft | 428 kts | 98° |
| 2026-04-16 07:24 | 22.09288 | 119.55191 | 19975 ft | 423 kts | 98° |
| 2026-04-16 07:24 | 22.08900 | 119.58328 | 19436 ft | 419 kts | 98° |
| 2026-04-16 07:24 | 22.08515 | 119.61433 | 18880 ft | 416 kts | 98° |
| 2026-04-16 07:25 | 22.08133 | 119.64508 | 18332 ft | 413 kts | 98° |
| 2026-04-16 07:25 | 22.07759 | 119.67516 | 17734 ft | 409 kts | 98° |
| 2026-04-16 07:25 | 22.07383 | 119.70528 | 17245 ft | 402 kts | 98° |
| 2026-04-16 07:25 | 22.07012 | 119.73495 | 16726 ft | 397 kts | 98° |
| 2026-04-16 07:26 | 22.06644 | 119.76430 | 16205 ft | 393 kts | 98° |
| 2026-04-16 07:26 | 22.06280 | 119.79330 | 15693 ft | 389 kts | 98° |
| 2026-04-16 07:26 | 22.05919 | 119.82203 | 15183 ft | 385 kts | 98° |
| 2026-04-16 07:26 | 22.05561 | 119.85047 | 14671 ft | 381 kts | 98° |
| 2026-04-16 07:27 | 22.05205 | 119.87872 | 14137 ft | 379 kts | 98° |
| 2026-04-16 07:27 | 22.04852 | 119.90669 | 13633 ft | 376 kts | 98° |
| 2026-04-16 07:27 | 22.04500 | 119.93448 | 13156 ft | 371 kts | 98° |
| 2026-04-16 07:27 | 22.04158 | 119.96147 | 12634 ft | 368 kts | 97° |
| 2026-04-16 07:28 | 22.03816 | 119.98851 | 12241 ft | 361 kts | 97° |
| 2026-04-16 07:28 | 22.03481 | 120.01512 | 11751 ft | 357 kts | 97° |
| 2026-04-16 07:28 | 22.03151 | 120.04155 | 11262 ft | 353 kts | 96° |
| 2026-04-16 07:28 | 22.03192 | 120.06795 | 10548 ft | 356 kts | 76° |
| 2026-04-16 07:29 | 22.04178 | 120.09185 | 10203 ft | 344 kts | 52° |
| 2026-04-16 07:29 | 22.05888 | 120.10855 | 10068 ft | 325 kts | 28° |
| 2026-04-16 07:29 | 22.07985 | 120.11520 | 9944 ft | 309 kts | 1° |
| 2026-04-16 07:29 | 22.10038 | 120.11294 | 9807 ft | 296 kts | 349° |
| 2026-04-16 07:30 | 22.12028 | 120.10820 | 9519 ft | 289 kts | 346° |
| 2026-04-16 07:30 | 22.13937 | 120.10306 | 9389 ft | 280 kts | 346° |
| 2026-04-16 07:30 | 22.15854 | 120.09778 | 9270 ft | 288 kts | 346° |
| 2026-04-16 07:30 | 22.17812 | 120.09236 | 9002 ft | 293 kts | 345° |
| 2026-04-16 07:31 | 22.19784 | 120.08688 | 8661 ft | 292 kts | 345° |
| 2026-04-16 07:31 | 22.21740 | 120.08146 | 8325 ft | 289 kts | 346° |
| 2026-04-16 07:31 | 22.23672 | 120.07611 | 7985 ft | 284 kts | 346° |
| 2026-04-16 07:31 | 22.25551 | 120.07092 | 7656 ft | 280 kts | 346° |
| 2026-04-16 07:32 | 22.27428 | 120.06573 | 7333 ft | 277 kts | 346° |
| 2026-04-16 07:32 | 22.29281 | 120.06061 | 7002 ft | 274 kts | 346° |
| 2026-04-16 07:32 | 22.31113 | 120.05551 | 6685 ft | 270 kts | 346° |
| 2026-04-16 07:32 | 22.32927 | 120.05049 | 6365 ft | 268 kts | 346° |
| 2026-04-16 07:33 | 22.34754 | 120.04731 | 6031 ft | 265 kts | 357° |
| 2026-04-16 07:33 | 22.36576 | 120.04834 | 5717 ft | 261 kts | 9° |
| 2026-04-16 07:33 | 22.38360 | 120.05163 | 5402 ft | 259 kts | 10° |
| 2026-04-16 07:33 | 22.40129 | 120.05501 | 5099 ft | 257 kts | 10° |
| 2026-04-16 07:34 | 22.41878 | 120.05847 | 4795 ft | 255 kts | 11° |
| 2026-04-16 07:34 | 22.43596 | 120.06195 | 4482 ft | 254 kts | 11° |
| 2026-04-16 07:34 | 22.45347 | 120.06553 | 4186 ft | 269 kts | 11° |
| 2026-04-16 07:34 | 22.47291 | 120.06953 | 3913 ft | 294 kts | 11° |
| 2026-04-16 07:35 | 22.49307 | 120.07367 | 3873 ft | 293 kts | 11° |
| 2026-04-16 07:35 | 22.51278 | 120.07772 | 3794 ft | 283 kts | 11° |
| 2026-04-16 07:35 | 22.53177 | 120.08161 | 3698 ft | 272 kts | 10° |
| 2026-04-16 07:35 | 22.54992 | 120.08529 | 3599 ft | 260 kts | 10° |
| 2026-04-16 07:36 | 22.56719 | 120.08977 | 3414 ft | 253 kts | 25° |
| 2026-04-16 07:36 | 22.58069 | 120.10103 | 3129 ft | 248 kts | 56° |
| 2026-04-16 07:36 | 22.58682 | 120.11766 | 3035 ft | 234 kts | 87° |
| 2026-04-16 07:36 | 22.58656 | 120.13485 | 2891 ft | 226 kts | 97° |
| 2026-04-16 07:37 | 22.58490 | 120.15178 | 2578 ft | 228 kts | 98° |
| 2026-04-16 07:37 | 22.58333 | 120.16879 | 2329 ft | 225 kts | 96° |
| 2026-04-16 07:37 | 22.58224 | 120.18538 | 2231 ft | 219 kts | 94° |
| 2026-04-16 07:37 | 22.58163 | 120.20167 | 2129 ft | 213 kts | 93° |
| 2026-04-16 07:38 | 22.58113 | 120.21737 | 2066 ft | 203 kts | 92° |
| 2026-04-16 07:38 | 22.58069 | 120.23189 | 1872 ft | 186 kts | 92° |
| 2026-04-16 07:38 | 22.58028 | 120.24521 | 1657 ft | 172 kts | 92° |
| 2026-04-16 07:38 | 22.57989 | 120.25764 | 1448 ft | 159 kts | 91° |
| 2026-04-16 07:39 | 22.57954 | 120.26930 | 1233 ft | 152 kts | 92° |
| 2026-04-16 07:39 | 22.57918 | 120.28087 | 1060 ft | 157 kts | 90° |
| 2026-04-16 07:39 | 22.57883 | 120.29248 | 855 ft | 149 kts | 91° |
| 2026-04-16 07:39 | 22.57849 | 120.30360 | 672 ft | 146 kts | 91° |
| 2026-04-16 07:40 | 22.57833 | 120.31434 | 537 ft | 144 kts | 90° |
| 2026-04-16 07:40 | 22.57787 | 120.32556 | 258 ft | 154 kts | 91° |
| 2026-04-16 07:40 | 22.57752 | 120.33677 | 63 ft | 142 kts | 90° |
| 2026-04-16 07:40 | 22.57731 | 120.34607 | 33 ft | 88 kts | 92° |
| 2026-04-16 07:41 | 22.57724 | 120.35103 | 34 ft | 62 kts | 90° |
| 2026-04-16 07:41 | 22.57706 | 120.35549 | 35 ft | 57 kts | 92° |
| 2026-04-16 07:41 | 22.57681 | 120.35858 | 39 ft | 34 kts | 109° |
| 2026-04-16 07:41 | 22.57536 | 120.35899 | 36 ft | 19 kts | 216° |
| 2026-04-16 07:42 | 22.57521 | 120.35806 | 36 ft | 14 kts | 273° |
| 2026-04-16 07:42 | 22.57526 | 120.35675 | 35 ft | 20 kts | 272° |
| 2026-04-16 07:42 | 22.57532 | 120.35514 | 34 ft | 23 kts | 272° |
| 2026-04-16 07:42 | 22.57532 | 120.35336 | 34 ft | 25 kts | 270° |
| 2026-04-16 07:43 | 22.57536 | 120.35145 | 33 ft | 26 kts | 271° |
| 2026-04-16 07:43 | 22.57543 | 120.34946 | 33 ft | 27 kts | 272° |
| 2026-04-16 07:43 | 22.57550 | 120.34736 | 32 ft | 29 kts | 271° |
| 2026-04-16 07:43 | 22.57555 | 120.34517 | 31 ft | 30 kts | 272° |
| 2026-04-16 07:44 | 22.57566 | 120.34290 | 31 ft | 31 kts | 273° |
| 2026-04-16 07:44 | 22.57489 | 120.34121 | 27 ft | 24 kts | 190° |
| 2026-04-16 07:44 | 22.57355 | 120.34057 | 27 ft | 20 kts | 190° |
| 2026-04-16 07:44 | 22.57291 | 120.34052 | 26 ft | 7 kts | 176° |
| 2026-04-16 07:45 | 22.57264 | 120.34100 | 26 ft | 10 kts | 89° |
| 2026-04-16 07:45 | 22.57268 | 120.34135 | 27 ft | 2 kts | 86° |
| 2026-04-16 07:45 | 22.57268 | 120.34137 | 27 ft | 0 kts | 86° |